sensor_id;sensor_type;location;lat;lon;timestamp;P1;P2;P0
37290;PMS5003;23175;-33.706;151.094;2023-07-24T00:01:42;7;5;
37290;PMS5003;23175;-33.706;151.094;2023-07-24T00:04:12;7;7;
37290;PMS5003;23175;-33.706;151.094;2023-07-24T00:06:41;5;5;
37290;PMS5003;23175;-33.706;151.094;2023-07-24T00:09:11;6;6;
37290;PMS5003;23175;-33.706;151.094;2023-07-24T00:11:41;7;6;
37290;PMS5003;23175;-33.706;151.094;2023-07-24T00:14:11;6;6;
37290;PMS5003;23175;-33.706;151.094;2023-07-24T00:16:42;8;5;
37290;PMS5003;23175;-33.706;151.094;2023-07-24T00:19:13;9;8;
37290;PMS5003;23175;-33.706;151.094;2023-07-24T00:21:43;6;5;
37290;PMS5003;23175;-33.706;151.094;2023-07-24T00:24:18;6;6;
37290;PMS5003;23175;-33.706;151.094;2023-07-24T00:26:48;7;5;
37290;PMS5003;23175;-33.706;151.094;2023-07-24T00:29:18;6;5;
37290;PMS5003;23175;-33.706;151.094;2023-07-24T00:31:48;6;6;
37290;PMS5003;23175;-33.706;151.094;2023-07-24T00:34:18;5;5;
37290;PMS5003;23175;-33.706;151.094;2023-07-24T00:36:53;7;6;
37290;PMS5003;23175;-33.706;151.094;2023-07-24T00:39:23;5;5;
37290;PMS5003;23175;-33.706;151.094;2023-07-24T00:41:53;8;6;
37290;PMS5003;23175;-33.706;151.094;2023-07-24T00:44:24;6;6;
37290;PMS5003;23175;-33.706;151.094;2023-07-24T00:46:54;7;7;
37290;PMS5003;23175;-33.706;151.094;2023-07-24T00:49:25;5;4;
37290;PMS5003;23175;-33.706;151.094;2023-07-24T00:51:56;7;6;
37290;PMS5003;23175;-33.706;151.094;2023-07-24T00:54:31;6;4;
37290;PMS5003;23175;-33.706;151.094;2023-07-24T00:57:03;5;5;
37290;PMS5003;23175;-33.706;151.094;2023-07-24T00:59:33;5;4;
37290;PMS5003;23175;-33.706;151.094;2023-07-24T01:02:04;8;8;
37290;PMS5003;23175;-33.706;151.094;2023-07-24T01:04:34;7;7;
37290;PMS5003;23175;-33.706;151.094;2023-07-24T01:07:05;6;5;
37290;PMS5003;23175;-33.706;151.094;2023-07-24T01:09:35;4;4;
37290;PMS5003;23175;-33.706;151.094;2023-07-24T01:12:06;5;5;
37290;PMS5003;23175;-33.706;151.094;2023-07-24T01:14:46;4;4;
37290;PMS5003;23175;-33.706;151.094;2023-07-24T01:17:24;7;6;
37290;PMS5003;23175;-33.706;151.094;2023-07-24T01:19:58;4;4;
37290;PMS5003;23175;-33.706;151.094;2023-07-24T01:22:38;6;5;
37290;PMS5003;23175;-33.706;151.094;2023-07-24T01:25:18;8;6;
37290;PMS5003;23175;-33.706;151.094;2023-07-24T01:27:54;6;5;
37290;PMS5003;23175;-33.706;151.094;2023-07-24T01:30:24;7;7;
37290;PMS5003;23175;-33.706;151.094;2023-07-24T01:32:54;5;4;
37290;PMS5003;23175;-33.706;151.094;2023-07-24T01:35:25;5;5;
37290;PMS5003;23175;-33.706;151.094;2023-07-24T01:37:57;3;3;
37290;PMS5003;23175;-33.706;151.094;2023-07-24T01:40:31;6;5;
37290;PMS5003;23175;-33.706;151.094;2023-07-24T01:43:02;5;4;
37290;PMS5003;23175;-33.706;151.094;2023-07-24T01:45:31;5;5;
37290;PMS5003;23175;-33.706;151.094;2023-07-24T01:48:03;5;4;
37290;PMS5003;23175;-33.706;151.094;2023-07-24T01:50:33;6;6;
37290;PMS5003;23175;-33.706;151.094;2023-07-24T01:53:03;3;3;
37290;PMS5003;23175;-33.706;151.094;2023-07-24T01:55:33;5;5;
37290;PMS5003;23175;-33.706;151.094;2023-07-24T01:58:08;4;4;
37290;PMS5003;23175;-33.706;151.094;2023-07-24T02:00:38;7;5;
37290;PMS5003;23175;-33.706;151.094;2023-07-24T02:03:08;5;5;
37290;PMS5003;23175;-33.706;151.094;2023-07-24T02:05:38;7;5;
37290;PMS5003;23175;-33.706;151.094;2023-07-24T02:08:08;6;5;
37290;PMS5003;23175;-33.706;151.094;2023-07-24T02:10:38;5;5;
37290;PMS5003;23175;-33.706;151.094;2023-07-24T02:13:08;6;6;
37290;PMS5003;23175;-33.706;151.094;2023-07-24T02:15:38;6;5;
37290;PMS5003;23175;-33.706;151.094;2023-07-24T02:18:08;7;7;
37290;PMS5003;23175;-33.706;151.094;2023-07-24T02:20:38;4;4;
37290;PMS5003;23175;-33.706;151.094;2023-07-24T02:23:08;5;4;
37290;PMS5003;23175;-33.706;151.094;2023-07-24T02:25:39;6;3;
37290;PMS5003;23175;-33.706;151.094;2023-07-24T02:28:09;5;4;
37290;PMS5003;23175;-33.706;151.094;2023-07-24T02:30:39;5;4;
37290;PMS5003;23175;-33.706;151.094;2023-07-24T02:33:09;4;4;
37290;PMS5003;23175;-33.706;151.094;2023-07-24T02:35:40;4;4;
37290;PMS5003;23175;-33.706;151.094;2023-07-24T02:38:10;6;4;
37290;PMS5003;23175;-33.706;151.094;2023-07-24T02:40:41;6;6;
37290;PMS5003;23175;-33.706;151.094;2023-07-24T02:43:11;5;5;
37290;PMS5003;23175;-33.706;151.094;2023-07-24T02:45:41;9;8;
37290;PMS5003;23175;-33.706;151.094;2023-07-24T02:48:11;6;4;
37290;PMS5003;23175;-33.706;151.094;2023-07-24T02:50:41;8;3;
37290;PMS5003;23175;-33.706;151.094;2023-07-24T02:53:11;7;4;
37290;PMS5003;23175;-33.706;151.094;2023-07-24T02:55:42;2;2;
37290;PMS5003;23175;-33.706;151.094;2023-07-24T02:58:12;4;4;
37290;PMS5003;23175;-33.706;151.094;2023-07-24T03:00:42;5;5;
37290;PMS5003;23175;-33.706;151.094;2023-07-24T03:03:12;4;4;
37290;PMS5003;23175;-33.706;151.094;2023-07-24T03:05:42;5;5;
37290;PMS5003;23175;-33.706;151.094;2023-07-24T03:08:12;4;4;
37290;PMS5003;23175;-33.706;151.094;2023-07-24T03:10:41;4;3;
37290;PMS5003;23175;-33.706;151.094;2023-07-24T03:13:16;3;3;
37290;PMS5003;23175;-33.706;151.094;2023-07-24T03:15:51;7;5;
37290;PMS5003;23175;-33.706;151.094;2023-07-24T03:18:25;5;4;
37290;PMS5003;23175;-33.706;151.094;2023-07-24T03:20:57;4;4;
37290;PMS5003;23175;-33.706;151.094;2023-07-24T03:23:28;2;2;
37290;PMS5003;23175;-33.706;151.094;2023-07-24T03:25:58;5;5;
37290;PMS5003;23175;-33.706;151.094;2023-07-24T03:28:27;3;3;
37290;PMS5003;23175;-33.706;151.094;2023-07-24T03:30:58;3;3;
37290;PMS5003;23175;-33.706;151.094;2023-07-24T03:33:28;6;5;
37290;PMS5003;23175;-33.706;151.094;2023-07-24T03:35:58;8;8;
37290;PMS5003;23175;-33.706;151.094;2023-07-24T03:38:28;5;5;
37290;PMS5003;23175;-33.706;151.094;2023-07-24T03:40:58;6;6;
37290;PMS5003;23175;-33.706;151.094;2023-07-24T03:43:28;5;4;
37290;PMS5003;23175;-33.706;151.094;2023-07-24T03:45:57;4;1;
37290;PMS5003;23175;-33.706;151.094;2023-07-24T03:48:28;3;3;
37290;PMS5003;23175;-33.706;151.094;2023-07-24T03:50:59;4;3;
37290;PMS5003;23175;-33.706;151.094;2023-07-24T03:53:29;6;5;
37290;PMS5003;23175;-33.706;151.094;2023-07-24T03:55:59;5;3;
37290;PMS5003;23175;-33.706;151.094;2023-07-24T03:58:30;5;4;
37290;PMS5003;23175;-33.706;151.094;2023-07-24T04:01:05;5;3;
37290;PMS5003;23175;-33.706;151.094;2023-07-24T04:03:36;3;3;
37290;PMS5003;23175;-33.706;151.094;2023-07-24T04:06:10;4;4;
37290;PMS5003;23175;-33.706;151.094;2023-07-24T04:08:40;3;3;
37290;PMS5003;23175;-33.706;151.094;2023-07-24T04:11:10;4;4;
37290;PMS5003;23175;-33.706;151.094;2023-07-24T04:13:40;5;4;
37290;PMS5003;23175;-33.706;151.094;2023-07-24T04:16:10;2;2;
37290;PMS5003;23175;-33.706;151.094;2023-07-24T04:18:39;3;3;
37290;PMS5003;23175;-33.706;151.094;2023-07-24T04:21:10;7;7;
37290;PMS5003;23175;-33.706;151.094;2023-07-24T04:23:40;4;3;
37290;PMS5003;23175;-33.706;151.094;2023-07-24T04:26:10;7;4;
37290;PMS5003;23175;-33.706;151.094;2023-07-24T04:28:40;3;3;
37290;PMS5003;23175;-33.706;151.094;2023-07-24T04:31:10;3;3;
37290;PMS5003;23175;-33.706;151.094;2023-07-24T04:33:39;2;2;
37290;PMS5003;23175;-33.706;151.094;2023-07-24T04:36:09;5;4;
37290;PMS5003;23175;-33.706;151.094;2023-07-24T04:38:44;4;4;
37290;PMS5003;23175;-33.706;151.094;2023-07-24T04:41:14;5;4;
37290;PMS5003;23175;-33.706;151.094;2023-07-24T04:43:44;4;3;
37290;PMS5003;23175;-33.706;151.094;2023-07-24T04:46:15;3;3;
37290;PMS5003;23175;-33.706;151.094;2023-07-24T04:48:44;4;3;
37290;PMS5003;23175;-33.706;151.094;2023-07-24T04:51:14;5;4;
37290;PMS5003;23175;-33.706;151.094;2023-07-24T04:53:44;2;2;
37290;PMS5003;23175;-33.706;151.094;2023-07-24T04:56:14;6;5;
37290;PMS5003;23175;-33.706;151.094;2023-07-24T04:58:43;2;2;
37290;PMS5003;23175;-33.706;151.094;2023-07-24T05:01:13;4;4;
37290;PMS5003;23175;-33.706;151.094;2023-07-24T05:03:44;7;4;
37290;PMS5003;23175;-33.706;151.094;2023-07-24T05:06:19;2;2;
37290;PMS5003;23175;-33.706;151.094;2023-07-24T05:08:49;5;3;
37290;PMS5003;23175;-33.706;151.094;2023-07-24T05:11:20;4;3;
37290;PMS5003;23175;-33.706;151.094;2023-07-24T05:13:51;7;6;
37290;PMS5003;23175;-33.706;151.094;2023-07-24T05:16:21;3;3;
37290;PMS5003;23175;-33.706;151.094;2023-07-24T05:18:51;4;3;
37290;PMS5003;23175;-33.706;151.094;2023-07-24T05:21:21;5;3;
37290;PMS5003;23175;-33.706;151.094;2023-07-24T05:23:51;5;5;
37290;PMS5003;23175;-33.706;151.094;2023-07-24T05:26:26;4;4;
37290;PMS5003;23175;-33.706;151.094;2023-07-24T05:28:56;5;5;
37290;PMS5003;23175;-33.706;151.094;2023-07-24T05:31:28;5;4;
37290;PMS5003;23175;-33.706;151.094;2023-07-24T05:34:03;3;3;
37290;PMS5003;23175;-33.706;151.094;2023-07-24T05:36:33;4;4;
37290;PMS5003;23175;-33.706;151.094;2023-07-24T05:39:03;5;4;
37290;PMS5003;23175;-33.706;151.094;2023-07-24T05:41:33;4;4;
37290;PMS5003;23175;-33.706;151.094;2023-07-24T05:44:03;7;4;
37290;PMS5003;23175;-33.706;151.094;2023-07-24T05:46:33;9;8;
37290;PMS5003;23175;-33.706;151.094;2023-07-24T05:49:03;4;4;
37290;PMS5003;23175;-33.706;151.094;2023-07-24T05:51:33;3;3;
37290;PMS5003;23175;-33.706;151.094;2023-07-24T05:54:03;3;3;
37290;PMS5003;23175;-33.706;151.094;2023-07-24T05:56:32;4;4;
37290;PMS5003;23175;-33.706;151.094;2023-07-24T05:59:02;5;4;
37290;PMS5003;23175;-33.706;151.094;2023-07-24T06:01:32;5;5;
37290;PMS5003;23175;-33.706;151.094;2023-07-24T06:04:02;5;5;
37290;PMS5003;23175;-33.706;151.094;2023-07-24T06:06:32;6;6;
37290;PMS5003;23175;-33.706;151.094;2023-07-24T06:09:02;4;4;
37290;PMS5003;23175;-33.706;151.094;2023-07-24T06:11:32;6;5;
37290;PMS5003;23175;-33.706;151.094;2023-07-24T06:14:06;8;4;
37290;PMS5003;23175;-33.706;151.094;2023-07-24T06:16:36;6;6;
37290;PMS5003;23175;-33.706;151.094;2023-07-24T06:19:06;4;4;
37290;PMS5003;23175;-33.706;151.094;2023-07-24T06:21:36;6;5;
37290;PMS5003;23175;-33.706;151.094;2023-07-24T06:24:06;5;4;
37290;PMS5003;23175;-33.706;151.094;2023-07-24T06:26:36;7;3;
37290;PMS5003;23175;-33.706;151.094;2023-07-24T06:29:06;4;3;
37290;PMS5003;23175;-33.706;151.094;2023-07-24T06:31:36;6;5;
37290;PMS5003;23175;-33.706;151.094;2023-07-24T06:34:07;5;4;
37290;PMS5003;23175;-33.706;151.094;2023-07-24T06:36:37;6;5;
37290;PMS5003;23175;-33.706;151.094;2023-07-24T06:39:08;12;9;
37290;PMS5003;23175;-33.706;151.094;2023-07-24T06:41:38;14;12;
37290;PMS5003;23175;-33.706;151.094;2023-07-24T06:44:08;4;4;
37290;PMS5003;23175;-33.706;151.094;2023-07-24T06:46:42;3;2;
37290;PMS5003;23175;-33.706;151.094;2023-07-24T06:49:12;3;3;
37290;PMS5003;23175;-33.706;151.094;2023-07-24T06:51:43;8;5;
37290;PMS5003;23175;-33.706;151.094;2023-07-24T06:54:13;4;4;
37290;PMS5003;23175;-33.706;151.094;2023-07-24T06:56:42;4;3;
37290;PMS5003;23175;-33.706;151.094;2023-07-24T06:59:12;5;5;
37290;PMS5003;23175;-33.706;151.094;2023-07-24T07:01:42;15;13;
37290;PMS5003;23175;-33.706;151.094;2023-07-24T07:04:12;12;12;
37290;PMS5003;23175;-33.706;151.094;2023-07-24T07:06:43;6;6;
37290;PMS5003;23175;-33.706;151.094;2023-07-24T07:09:13;5;5;
37290;PMS5003;23175;-33.706;151.094;2023-07-24T07:11:43;9;7;
37290;PMS5003;23175;-33.706;151.094;2023-07-24T07:14:13;7;7;
37290;PMS5003;23175;-33.706;151.094;2023-07-24T07:16:44;11;11;
37290;PMS5003;23175;-33.706;151.094;2023-07-24T07:19:13;19;17;
37290;PMS5003;23175;-33.706;151.094;2023-07-24T07:21:43;18;17;
37290;PMS5003;23175;-33.706;151.094;2023-07-24T07:24:13;19;14;
37290;PMS5003;23175;-33.706;151.094;2023-07-24T07:26:43;10;10;
37290;PMS5003;23175;-33.706;151.094;2023-07-24T07:29:14;15;12;
37290;PMS5003;23175;-33.706;151.094;2023-07-24T07:31:46;14;14;
37290;PMS5003;23175;-33.706;151.094;2023-07-24T07:34:21;11;11;
37290;PMS5003;23175;-33.706;151.094;2023-07-24T07:36:51;12;12;
37290;PMS5003;23175;-33.706;151.094;2023-07-24T07:39:21;31;24;
37290;PMS5003;23175;-33.706;151.094;2023-07-24T07:41:51;33;33;
37290;PMS5003;23175;-33.706;151.094;2023-07-24T07:44:22;25;25;
37290;PMS5003;23175;-33.706;151.094;2023-07-24T07:46:53;26;25;
37290;PMS5003;23175;-33.706;151.094;2023-07-24T07:49:23;24;22;
37290;PMS5003;23175;-33.706;151.094;2023-07-24T07:51:53;26;21;
37290;PMS5003;23175;-33.706;151.094;2023-07-24T07:54:27;25;24;
37290;PMS5003;23175;-33.706;151.094;2023-07-24T07:56:58;26;25;
37290;PMS5003;23175;-33.706;151.094;2023-07-24T07:59:28;23;23;
37290;PMS5003;23175;-33.706;151.094;2023-07-24T08:01:58;24;24;
37290;PMS5003;23175;-33.706;151.094;2023-07-24T08:04:28;23;20;
37290;PMS5003;23175;-33.706;151.094;2023-07-24T08:06:58;21;18;
37290;PMS5003;23175;-33.706;151.094;2023-07-24T08:09:28;23;21;
37290;PMS5003;23175;-33.706;151.094;2023-07-24T08:11:58;25;25;
37290;PMS5003;23175;-33.706;151.094;2023-07-24T08:14:29;28;25;
37290;PMS5003;23175;-33.706;151.094;2023-07-24T08:16:59;23;16;
37290;PMS5003;23175;-33.706;151.094;2023-07-24T08:19:28;18;18;
37290;PMS5003;23175;-33.706;151.094;2023-07-24T08:22:03;22;20;
37290;PMS5003;23175;-33.706;151.094;2023-07-24T08:24:34;16;16;
37290;PMS5003;23175;-33.706;151.094;2023-07-24T08:27:04;21;20;
37290;PMS5003;23175;-33.706;151.094;2023-07-24T08:29:34;24;24;
37290;PMS5003;23175;-33.706;151.094;2023-07-24T08:32:06;82;78;
37290;PMS5003;23175;-33.706;151.094;2023-07-24T08:34:36;58;56;
37290;PMS5003;23175;-33.706;151.094;2023-07-24T08:37:06;58;53;
37290;PMS5003;23175;-33.706;151.094;2023-07-24T08:39:36;52;47;
37290;PMS5003;23175;-33.706;151.094;2023-07-24T08:42:10;48;43;
37290;PMS5003;23175;-33.706;151.094;2023-07-24T08:44:41;36;33;
37290;PMS5003;23175;-33.706;151.094;2023-07-24T08:47:12;36;36;
37290;PMS5003;23175;-33.706;151.094;2023-07-24T08:49:43;38;36;
37290;PMS5003;23175;-33.706;151.094;2023-07-24T08:52:14;38;38;
37290;PMS5003;23175;-33.706;151.094;2023-07-24T08:54:44;46;43;
37290;PMS5003;23175;-33.706;151.094;2023-07-24T08:57:16;40;37;
37290;PMS5003;23175;-33.706;151.094;2023-07-24T08:59:47;36;31;
37290;PMS5003;23175;-33.706;151.094;2023-07-24T09:02:17;28;27;
37290;PMS5003;23175;-33.706;151.094;2023-07-24T09:04:47;30;30;
37290;PMS5003;23175;-33.706;151.094;2023-07-24T09:07:17;46;44;
37290;PMS5003;23175;-33.706;151.094;2023-07-24T09:09:47;46;43;
37290;PMS5003;23175;-33.706;151.094;2023-07-24T09:12:17;48;47;
37290;PMS5003;23175;-33.706;151.094;2023-07-24T09:14:59;44;43;
37290;PMS5003;23175;-33.706;151.094;2023-07-24T09:17:35;65;61;
37290;PMS5003;23175;-33.706;151.094;2023-07-24T09:20:14;51;50;
37290;PMS5003;23175;-33.706;151.094;2023-07-24T09:22:52;53;53;
37290;PMS5003;23175;-33.706;151.094;2023-07-24T09:25:30;47;44;
37290;PMS5003;23175;-33.706;151.094;2023-07-24T09:28:00;49;43;
37290;PMS5003;23175;-33.706;151.094;2023-07-24T09:30:38;52;47;
37290;PMS5003;23175;-33.706;151.094;2023-07-24T09:33:09;33;33;
37290;PMS5003;23175;-33.706;151.094;2023-07-24T09:35:40;33;33;
37290;PMS5003;23175;-33.706;151.094;2023-07-24T09:38:10;39;38;
37290;PMS5003;23175;-33.706;151.094;2023-07-24T09:40:42;38;34;
37290;PMS5003;23175;-33.706;151.094;2023-07-24T09:43:17;46;42;
37290;PMS5003;23175;-33.706;151.094;2023-07-24T09:45:48;35;32;
37290;PMS5003;23175;-33.706;151.094;2023-07-24T09:48:20;34;29;
37290;PMS5003;23175;-33.706;151.094;2023-07-24T09:50:53;31;28;
37290;PMS5003;23175;-33.706;151.094;2023-07-24T09:53:33;35;34;
37290;PMS5003;23175;-33.706;151.094;2023-07-24T09:56:07;31;28;
37290;PMS5003;23175;-33.706;151.094;2023-07-24T09:58:38;35;31;
37290;PMS5003;23175;-33.706;151.094;2023-07-24T10:01:13;34;31;
37290;PMS5003;23175;-33.706;151.094;2023-07-24T10:03:46;38;38;
37290;PMS5003;23175;-33.706;151.094;2023-07-24T10:06:17;44;42;
37290;PMS5003;23175;-33.706;151.094;2023-07-24T10:08:47;45;41;
37290;PMS5003;23175;-33.706;151.094;2023-07-24T10:11:18;40;38;
37290;PMS5003;23175;-33.706;151.094;2023-07-24T10:13:49;33;30;
37290;PMS5003;23175;-33.706;151.094;2023-07-24T10:16:21;26;25;
37290;PMS5003;23175;-33.706;151.094;2023-07-24T10:18:51;21;20;
37290;PMS5003;23175;-33.706;151.094;2023-07-24T10:21:25;37;35;
37290;PMS5003;23175;-33.706;151.094;2023-07-24T10:23:59;35;32;
37290;PMS5003;23175;-33.706;151.094;2023-07-24T10:26:30;53;52;
37290;PMS5003;23175;-33.706;151.094;2023-07-24T10:29:02;40;39;
37290;PMS5003;23175;-33.706;151.094;2023-07-24T10:31:32;39;39;
37290;PMS5003;23175;-33.706;151.094;2023-07-24T10:34:05;43;39;
37290;PMS5003;23175;-33.706;151.094;2023-07-24T10:36:36;32;29;
37290;PMS5003;23175;-33.706;151.094;2023-07-24T10:39:13;33;32;
37290;PMS5003;23175;-33.706;151.094;2023-07-24T10:41:44;27;25;
37290;PMS5003;23175;-33.706;151.094;2023-07-24T10:44:15;29;29;
37290;PMS5003;23175;-33.706;151.094;2023-07-24T10:46:44;27;27;
37290;PMS5003;23175;-33.706;151.094;2023-07-24T10:49:14;26;24;
37290;PMS5003;23175;-33.706;151.094;2023-07-24T10:51:55;21;19;
37290;PMS5003;23175;-33.706;151.094;2023-07-24T10:54:25;24;22;
37290;PMS5003;23175;-33.706;151.094;2023-07-24T10:56:58;16;15;
37290;PMS5003;23175;-33.706;151.094;2023-07-24T10:59:38;20;16;
37290;PMS5003;23175;-33.706;151.094;2023-07-24T11:02:08;17;15;
37290;PMS5003;23175;-33.706;151.094;2023-07-24T11:04:39;20;19;
37290;PMS5003;23175;-33.706;151.094;2023-07-24T11:07:09;18;18;
37290;PMS5003;23175;-33.706;151.094;2023-07-24T11:09:40;18;17;
37290;PMS5003;23175;-33.706;151.094;2023-07-24T11:12:10;24;24;
37290;PMS5003;23175;-33.706;151.094;2023-07-24T11:14:49;19;18;
37290;PMS5003;23175;-33.706;151.094;2023-07-24T11:17:21;32;28;
37290;PMS5003;23175;-33.706;151.094;2023-07-24T11:20:05;32;28;
37290;PMS5003;23175;-33.706;151.094;2023-07-24T11:22:38;29;27;
37290;PMS5003;23175;-33.706;151.094;2023-07-24T11:25:10;24;23;
37290;PMS5003;23175;-33.706;151.094;2023-07-24T11:27:42;35;35;
37290;PMS5003;23175;-33.706;151.094;2023-07-24T11:30:12;36;36;
37290;PMS5003;23175;-33.706;151.094;2023-07-24T11:32:47;40;37;
37290;PMS5003;23175;-33.706;151.094;2023-07-24T11:35:18;39;38;
37290;PMS5003;23175;-33.706;151.094;2023-07-24T11:37:49;27;27;
37290;PMS5003;23175;-33.706;151.094;2023-07-24T11:40:19;33;31;
37290;PMS5003;23175;-33.706;151.094;2023-07-24T11:42:49;36;35;
37290;PMS5003;23175;-33.706;151.094;2023-07-24T11:45:19;34;32;
37290;PMS5003;23175;-33.706;151.094;2023-07-24T11:47:50;38;32;
37290;PMS5003;23175;-33.706;151.094;2023-07-24T11:50:20;35;34;
37290;PMS5003;23175;-33.706;151.094;2023-07-24T11:52:51;36;32;
37290;PMS5003;23175;-33.706;151.094;2023-07-24T11:55:30;39;37;
37290;PMS5003;23175;-33.706;151.094;2023-07-24T11:58:05;36;35;
37290;PMS5003;23175;-33.706;151.094;2023-07-24T12:00:35;32;31;
37290;PMS5003;23175;-33.706;151.094;2023-07-24T12:03:06;29;26;
37290;PMS5003;23175;-33.706;151.094;2023-07-24T12:05:38;28;26;
37290;PMS5003;23175;-33.706;151.094;2023-07-24T12:08:09;30;30;
37290;PMS5003;23175;-33.706;151.094;2023-07-24T12:10:39;29;28;
37290;PMS5003;23175;-33.706;151.094;2023-07-24T12:13:10;29;27;
37290;PMS5003;23175;-33.706;151.094;2023-07-24T12:15:40;33;30;
37290;PMS5003;23175;-33.706;151.094;2023-07-24T12:18:10;25;25;
37290;PMS5003;23175;-33.706;151.094;2023-07-24T12:20:40;28;27;
37290;PMS5003;23175;-33.706;151.094;2023-07-24T12:23:10;34;32;
37290;PMS5003;23175;-33.706;151.094;2023-07-24T12:25:40;29;26;
37290;PMS5003;23175;-33.706;151.094;2023-07-24T12:28:11;26;26;
37290;PMS5003;23175;-33.706;151.094;2023-07-24T12:30:41;24;24;
37290;PMS5003;23175;-33.706;151.094;2023-07-24T12:33:12;36;34;
37290;PMS5003;23175;-33.706;151.094;2023-07-24T12:35:42;28;26;
37290;PMS5003;23175;-33.706;151.094;2023-07-24T12:38:17;29;27;
37290;PMS5003;23175;-33.706;151.094;2023-07-24T12:40:47;31;27;
37290;PMS5003;23175;-33.706;151.094;2023-07-24T12:43:17;29;28;
37290;PMS5003;23175;-33.706;151.094;2023-07-24T12:45:47;30;28;
37290;PMS5003;23175;-33.706;151.094;2023-07-24T12:48:18;28;28;
37290;PMS5003;23175;-33.706;151.094;2023-07-24T12:50:47;34;33;
37290;PMS5003;23175;-33.706;151.094;2023-07-24T12:53:17;32;28;
37290;PMS5003;23175;-33.706;151.094;2023-07-24T12:55:47;35;34;
37290;PMS5003;23175;-33.706;151.094;2023-07-24T12:58:18;30;30;
37290;PMS5003;23175;-33.706;151.094;2023-07-24T13:00:47;38;32;
37290;PMS5003;23175;-33.706;151.094;2023-07-24T13:03:17;34;34;
37290;PMS5003;23175;-33.706;151.094;2023-07-24T13:05:48;27;27;
37290;PMS5003;23175;-33.706;151.094;2023-07-24T13:08:18;32;32;
37290;PMS5003;23175;-33.706;151.094;2023-07-24T13:10:48;31;30;
37290;PMS5003;23175;-33.706;151.094;2023-07-24T13:13:18;35;33;
37290;PMS5003;23175;-33.706;151.094;2023-07-24T13:15:48;29;29;
37290;PMS5003;23175;-33.706;151.094;2023-07-24T13:18:18;33;31;
37290;PMS5003;23175;-33.706;151.094;2023-07-24T13:20:49;33;32;
37290;PMS5003;23175;-33.706;151.094;2023-07-24T13:23:19;32;32;
37290;PMS5003;23175;-33.706;151.094;2023-07-24T13:25:51;41;40;
37290;PMS5003;23175;-33.706;151.094;2023-07-24T13:28:21;37;34;
37290;PMS5003;23175;-33.706;151.094;2023-07-24T13:30:52;39;36;
37290;PMS5003;23175;-33.706;151.094;2023-07-24T13:33:22;44;42;
37290;PMS5003;23175;-33.706;151.094;2023-07-24T13:35:52;35;34;
37290;PMS5003;23175;-33.706;151.094;2023-07-24T13:38:22;38;36;
37290;PMS5003;23175;-33.706;151.094;2023-07-24T13:40:54;37;34;
37290;PMS5003;23175;-33.706;151.094;2023-07-24T13:43:24;48;45;
37290;PMS5003;23175;-33.706;151.094;2023-07-24T13:45:54;46;46;
37290;PMS5003;23175;-33.706;151.094;2023-07-24T13:48:26;44;42;
37290;PMS5003;23175;-33.706;151.094;2023-07-24T13:50:57;45;42;
37290;PMS5003;23175;-33.706;151.094;2023-07-24T13:53:27;43;41;
37290;PMS5003;23175;-33.706;151.094;2023-07-24T13:55:57;49;44;
37290;PMS5003;23175;-33.706;151.094;2023-07-24T13:58:33;36;36;
37290;PMS5003;23175;-33.706;151.094;2023-07-24T14:01:03;43;41;
37290;PMS5003;23175;-33.706;151.094;2023-07-24T14:03:34;41;41;
37290;PMS5003;23175;-33.706;151.094;2023-07-24T14:06:04;49;48;
37290;PMS5003;23175;-33.706;151.094;2023-07-24T14:08:34;54;54;
37290;PMS5003;23175;-33.706;151.094;2023-07-24T14:11:05;65;61;
37290;PMS5003;23175;-33.706;151.094;2023-07-24T14:13:35;60;59;
37290;PMS5003;23175;-33.706;151.094;2023-07-24T14:16:05;61;56;
37290;PMS5003;23175;-33.706;151.094;2023-07-24T14:18:35;60;58;
37290;PMS5003;23175;-33.706;151.094;2023-07-24T14:21:05;65;61;
37290;PMS5003;23175;-33.706;151.094;2023-07-24T14:23:36;53;53;
37290;PMS5003;23175;-33.706;151.094;2023-07-24T14:26:07;46;46;
37290;PMS5003;23175;-33.706;151.094;2023-07-24T14:28:42;49;48;
37290;PMS5003;23175;-33.706;151.094;2023-07-24T14:31:12;48;46;
37290;PMS5003;23175;-33.706;151.094;2023-07-24T14:33:42;42;41;
37290;PMS5003;23175;-33.706;151.094;2023-07-24T14:36:12;47;46;
37290;PMS5003;23175;-33.706;151.094;2023-07-24T14:38:42;38;38;
37290;PMS5003;23175;-33.706;151.094;2023-07-24T14:41:12;44;41;
37290;PMS5003;23175;-33.706;151.094;2023-07-24T14:43:42;45;41;
37290;PMS5003;23175;-33.706;151.094;2023-07-24T14:46:13;43;40;
37290;PMS5003;23175;-33.706;151.094;2023-07-24T14:48:44;47;45;
37290;PMS5003;23175;-33.706;151.094;2023-07-24T14:51:13;47;47;
37290;PMS5003;23175;-33.706;151.094;2023-07-24T14:53:44;43;43;
37290;PMS5003;23175;-33.706;151.094;2023-07-24T14:56:14;42;40;
37290;PMS5003;23175;-33.706;151.094;2023-07-24T14:58:44;38;37;
37290;PMS5003;23175;-33.706;151.094;2023-07-24T15:01:14;37;35;
37290;PMS5003;23175;-33.706;151.094;2023-07-24T15:03:44;44;43;
37290;PMS5003;23175;-33.706;151.094;2023-07-24T15:06:14;43;39;
37290;PMS5003;23175;-33.706;151.094;2023-07-24T15:08:44;47;42;
37290;PMS5003;23175;-33.706;151.094;2023-07-24T15:11:15;37;37;
37290;PMS5003;23175;-33.706;151.094;2023-07-24T15:13:45;40;37;
37290;PMS5003;23175;-33.706;151.094;2023-07-24T15:16:15;38;36;
37290;PMS5003;23175;-33.706;151.094;2023-07-24T15:18:50;34;34;
37290;PMS5003;23175;-33.706;151.094;2023-07-24T15:21:20;42;41;
37290;PMS5003;23175;-33.706;151.094;2023-07-24T15:23:50;39;37;
37290;PMS5003;23175;-33.706;151.094;2023-07-24T15:26:20;36;36;
37290;PMS5003;23175;-33.706;151.094;2023-07-24T15:28:52;34;31;
37290;PMS5003;23175;-33.706;151.094;2023-07-24T15:31:22;38;37;
37290;PMS5003;23175;-33.706;151.094;2023-07-24T15:33:53;34;34;
37290;PMS5003;23175;-33.706;151.094;2023-07-24T15:36:24;30;27;
37290;PMS5003;23175;-33.706;151.094;2023-07-24T15:38:54;32;31;
37290;PMS5003;23175;-33.706;151.094;2023-07-24T15:41:24;32;30;
37290;PMS5003;23175;-33.706;151.094;2023-07-24T15:43:54;33;31;
37290;PMS5003;23175;-33.706;151.094;2023-07-24T15:46:25;32;31;
37290;PMS5003;23175;-33.706;151.094;2023-07-24T15:48:56;28;28;
37290;PMS5003;23175;-33.706;151.094;2023-07-24T15:51:26;30;29;
37290;PMS5003;23175;-33.706;151.094;2023-07-24T15:54:02;29;27;
37290;PMS5003;23175;-33.706;151.094;2023-07-24T15:56:32;26;26;
37290;PMS5003;23175;-33.706;151.094;2023-07-24T15:59:02;33;32;
37290;PMS5003;23175;-33.706;151.094;2023-07-24T16:01:31;35;34;
37290;PMS5003;23175;-33.706;151.094;2023-07-24T16:04:01;28;28;
37290;PMS5003;23175;-33.706;151.094;2023-07-24T16:06:36;32;30;
37290;PMS5003;23175;-33.706;151.094;2023-07-24T16:09:06;30;27;